Morant Bay, Jamaica
Current Conditions -  °F | °C
As of 1:00 PM on Friday 24 Oct 2014 (Local Time) from MKJP Reporting Station
Few Clouds Few Clouds  
Wind Chill: 90°   Ceiling: Unl
Heat Index: 102°   Visibility: 6mi
Dew Point: 77°   Wind: 14mph
Humidity: 66%   Direction: 160°SSE
Pressure: 29.83"   Gusts: NA
Location:  17.87°N, 76.39°W
Report Text: MKJP 241800Z 16012KT 9999 FEW024 32/25 Q1010
Loading
Personal Weather Stations






























Interactive Weather Map
Tropical Storm Tracking
New forecast layout! Learn more

10-Day Weather Forecast

Advertisements
Track Severe Weather on mobile